sensor_id;sensor_type;location;lat;lon;timestamp;pressure;altitude;pressure_sealevel;temperature;humidity
1736;BME280;865;53.672;10.250;2022-11-21T00:00:23;100143.47;;;-2.32;100.00
1736;BME280;865;53.672;10.250;2022-11-21T00:02:49;100131.63;;;-2.26;100.00
1736;BME280;865;53.672;10.250;2022-11-21T00:05:16;100141.25;;;-2.16;100.00
1736;BME280;865;53.672;10.250;2022-11-21T00:07:43;100134.38;;;-2.17;100.00
1736;BME280;865;53.672;10.250;2022-11-21T00:10:11;100138.56;;;-2.22;100.00
1736;BME280;865;53.672;10.250;2022-11-21T00:12:38;100136.59;;;-2.34;100.00
1736;BME280;865;53.672;10.250;2022-11-21T00:15:04;100141.66;;;-2.36;100.00
1736;BME280;865;53.672;10.250;2022-11-21T00:17:31;100137.31;;;-2.40;100.00
1736;BME280;865;53.672;10.250;2022-11-21T00:19:57;100135.66;;;-2.38;100.00
1736;BME280;865;53.672;10.250;2022-11-21T00:22:23;100132.91;;;-2.45;100.00
1736;BME280;865;53.672;10.250;2022-11-21T00:24:50;100119.22;;;-2.49;100.00
1736;BME280;865;53.672;10.250;2022-11-21T00:27:19;100123.44;;;-2.51;100.00
1736;BME280;865;53.672;10.250;2022-11-21T00:29:45;100121.66;;;-2.54;100.00
1736;BME280;865;53.672;10.250;2022-11-21T00:32:12;100126.75;;;-2.55;100.00
1736;BME280;865;53.672;10.250;2022-11-21T00:34:38;100122.34;;;-2.61;100.00
1736;BME280;865;53.672;10.250;2022-11-21T00:37:04;100116.41;;;-2.61;100.00
1736;BME280;865;53.672;10.250;2022-11-21T00:39:31;100116.19;;;-2.70;100.00
1736;BME280;865;53.672;10.250;2022-11-21T00:41:57;100113.56;;;-2.73;100.00
1736;BME280;865;53.672;10.250;2022-11-21T00:44:23;100099.91;;;-2.74;100.00
1736;BME280;865;53.672;10.250;2022-11-21T00:46:50;100104.16;;;-2.75;100.00
1736;BME280;865;53.672;10.250;2022-11-21T00:49:16;100098.00;;;-2.83;100.00
1736;BME280;865;53.672;10.250;2022-11-21T00:51:42;100103.19;;;-2.80;100.00
1736;BME280;865;53.672;10.250;2022-11-21T00:54:09;100094.72;;;-2.77;100.00
1736;BME280;865;53.672;10.250;2022-11-21T00:56:35;100086.22;;;-2.78;100.00
1736;BME280;865;53.672;10.250;2022-11-21T00:59:02;100087.06;;;-2.79;100.00
1736;BME280;865;53.672;10.250;2022-11-21T01:01:28;100096.41;;;-2.79;100.00
1736;BME280;865;53.672;10.250;2022-11-21T01:03:56;100087.69;;;-2.87;100.00
1736;BME280;865;53.672;10.250;2022-11-21T01:06:23;100087.50;;;-2.95;100.00
1736;BME280;865;53.672;10.250;2022-11-21T01:08:49;100084.94;;;-2.96;100.00
1736;BME280;865;53.672;10.250;2022-11-21T01:11:18;100087.34;;;-3.03;100.00
1736;BME280;865;53.672;10.250;2022-11-21T01:13:46;100091.44;;;-3.09;100.00
1736;BME280;865;53.672;10.250;2022-11-21T01:16:15;100094.13;;;-3.03;100.00
1736;BME280;865;53.672;10.250;2022-11-21T01:18:43;100102.38;;;-3.13;100.00
1736;BME280;865;53.672;10.250;2022-11-21T01:21:16;100094.00;;;-3.09;100.00
1736;BME280;865;53.672;10.250;2022-11-21T01:23:43;100095.84;;;-3.02;100.00
1736;BME280;865;53.672;10.250;2022-11-21T01:26:21;100094.34;;;-2.94;100.00
1736;BME280;865;53.672;10.250;2022-11-21T01:28:47;100094.44;;;-2.89;100.00
1736;BME280;865;53.672;10.250;2022-11-21T01:31:19;100096.16;;;-2.90;100.00
1736;BME280;865;53.672;10.250;2022-11-21T01:33:46;100098.00;;;-2.83;100.00
1736;BME280;865;53.672;10.250;2022-11-21T01:36:18;100103.78;;;-2.90;100.00
1736;BME280;865;53.672;10.250;2022-11-21T01:38:48;100093.38;;;-2.98;100.00
1736;BME280;865;53.672;10.250;2022-11-21T01:41:20;100100.13;;;-3.01;100.00
1736;BME280;865;53.672;10.250;2022-11-21T01:43:47;100099.47;;;-2.92;100.00
1736;BME280;865;53.672;10.250;2022-11-21T01:46:17;100105.63;;;-2.84;100.00
1736;BME280;865;53.672;10.250;2022-11-21T01:48:55;100105.84;;;-2.77;100.00
1736;BME280;865;53.672;10.250;2022-11-21T01:54:30;100106.13;;;-2.64;100.00
1736;BME280;865;53.672;10.250;2022-11-21T01:57:03;100097.63;;;-2.63;100.00
1736;BME280;865;53.672;10.250;2022-11-21T02:02:02;100101.88;;;-2.62;100.00
1736;BME280;865;53.672;10.250;2022-11-21T02:04:31;100103.59;;;-2.63;100.00
1736;BME280;865;53.672;10.250;2022-11-21T02:07:01;100103.44;;;-2.69;100.00
1736;BME280;865;53.672;10.250;2022-11-21T02:09:30;100100.06;;;-2.68;100.00
1736;BME280;865;53.672;10.250;2022-11-21T02:12:04;100106.03;;;-2.67;100.00
1736;BME280;865;53.672;10.250;2022-11-21T02:14:34;100104.22;;;-2.73;100.00
1736;BME280;865;53.672;10.250;2022-11-21T02:17:03;100101.75;;;-2.68;100.00
1736;BME280;865;53.672;10.250;2022-11-21T02:19:46;100108.69;;;-2.63;100.00
1736;BME280;865;53.672;10.250;2022-11-21T02:25:09;100111.22;;;-2.64;100.00
1736;BME280;865;53.672;10.250;2022-11-21T02:27:37;100101.03;;;-2.63;100.00
1736;BME280;865;53.672;10.250;2022-11-21T02:30:06;100104.38;;;-2.65;100.00
1736;BME280;865;53.672;10.250;2022-11-21T02:32:36;100098.47;;;-2.63;100.00
1736;BME280;865;53.672;10.250;2022-11-21T02:35:03;100091.66;;;-2.62;100.00
1736;BME280;865;53.672;10.250;2022-11-21T02:37:31;100093.13;;;-2.73;100.00
1736;BME280;865;53.672;10.250;2022-11-21T02:40:00;100090.72;;;-2.67;100.00
1736;BME280;865;53.672;10.250;2022-11-21T02:42:39;100091.59;;;-2.67;100.00
1736;BME280;865;53.672;10.250;2022-11-21T02:45:08;100094.09;;;-2.68;100.00
1736;BME280;865;53.672;10.250;2022-11-21T02:47:40;100092.38;;;-2.68;100.00
1736;BME280;865;53.672;10.250;2022-11-21T02:50:19;100093.22;;;-2.69;100.00
1736;BME280;865;53.672;10.250;2022-11-21T02:52:49;100089.03;;;-2.67;100.00
1736;BME280;865;53.672;10.250;2022-11-21T02:55:15;100086.69;;;-2.58;100.00
1736;BME280;865;53.672;10.250;2022-11-21T02:57:41;100078.06;;;-2.63;100.00
1736;BME280;865;53.672;10.250;2022-11-21T03:00:09;100081.47;;;-2.62;100.00
1736;BME280;865;53.672;10.250;2022-11-21T03:02:36;100077.13;;;-2.66;100.00
1736;BME280;865;53.672;10.250;2022-11-21T03:05:06;100074.56;;;-2.66;100.00
1736;BME280;865;53.672;10.250;2022-11-21T03:07:33;100076.09;;;-2.75;100.00
1736;BME280;865;53.672;10.250;2022-11-21T03:10:00;100075.22;;;-2.77;100.00
1736;BME280;865;53.672;10.250;2022-11-21T03:12:26;100072.56;;;-2.80;100.00
1736;BME280;865;53.672;10.250;2022-11-21T03:14:52;100071.81;;;-2.76;100.00
1736;BME280;865;53.672;10.250;2022-11-21T03:17:19;100064.09;;;-2.79;100.00
1736;BME280;865;53.672;10.250;2022-11-21T03:19:45;100062.44;;;-2.77;100.00
1736;BME280;865;53.672;10.250;2022-11-21T03:22:13;100063.38;;;-2.73;100.00
1736;BME280;865;53.672;10.250;2022-11-21T03:24:39;100058.25;;;-2.73;100.00
1736;BME280;865;53.672;10.250;2022-11-21T03:27:07;100052.06;;;-2.83;100.00
1736;BME280;865;53.672;10.250;2022-11-21T03:29:33;100057.16;;;-2.83;100.00
1736;BME280;865;53.672;10.250;2022-11-21T03:31:59;100054.69;;;-2.80;100.00
1736;BME280;865;53.672;10.250;2022-11-21T03:34:25;100056.31;;;-2.83;100.00
1736;BME280;865;53.672;10.250;2022-11-21T03:36:52;100051.19;;;-2.85;100.00
1736;BME280;865;53.672;10.250;2022-11-21T03:39:19;100056.16;;;-2.91;100.00
1736;BME280;865;53.672;10.250;2022-11-21T03:41:45;100062.03;;;-2.93;100.00
1736;BME280;865;53.672;10.250;2022-11-21T03:44:12;100052.63;;;-2.96;100.00
1736;BME280;865;53.672;10.250;2022-11-21T03:46:41;100047.59;;;-2.93;100.00
1736;BME280;865;53.672;10.250;2022-11-21T03:49:10;100055.28;;;-2.91;100.00
1736;BME280;865;53.672;10.250;2022-11-21T03:51:38;100056.88;;;-2.96;100.00
1736;BME280;865;53.672;10.250;2022-11-21T03:54:05;100062.91;;;-2.93;100.00
1736;BME280;865;53.672;10.250;2022-11-21T03:56:32;100064.53;;;-2.95;100.00
1736;BME280;865;53.672;10.250;2022-11-21T03:58:59;100059.28;;;-3.03;100.00
1736;BME280;865;53.672;10.250;2022-11-21T04:01:26;100053.13;;;-3.11;100.00
1736;BME280;865;53.672;10.250;2022-11-21T04:03:57;100058.38;;;-3.05;100.00
1736;BME280;865;53.672;10.250;2022-11-21T04:06:23;100063.41;;;-3.08;100.00
1736;BME280;865;53.672;10.250;2022-11-21T04:08:50;100057.16;;;-3.21;100.00
1736;BME280;865;53.672;10.250;2022-11-21T04:11:16;100062.94;;;-3.26;100.00
1736;BME280;865;53.672;10.250;2022-11-21T04:13:43;100062.97;;;-3.25;100.00
1736;BME280;865;53.672;10.250;2022-11-21T04:16:09;100069.91;;;-3.21;100.00
1736;BME280;865;53.672;10.250;2022-11-21T04:18:36;100067.97;;;-3.29;100.00
1736;BME280;865;53.672;10.250;2022-11-21T04:21:06;100061.88;;;-3.36;100.00
1736;BME280;865;53.672;10.250;2022-11-21T04:23:33;100071.00;;;-3.44;100.00
1736;BME280;865;53.672;10.250;2022-11-21T04:25:59;100077.03;;;-3.40;100.00
1736;BME280;865;53.672;10.250;2022-11-21T04:28:26;100074.31;;;-3.47;100.00
1736;BME280;865;53.672;10.250;2022-11-21T04:30:52;100079.34;;;-3.50;100.00
1736;BME280;865;53.672;10.250;2022-11-21T04:33:20;100078.50;;;-3.50;100.00
1736;BME280;865;53.672;10.250;2022-11-21T04:35:47;100079.44;;;-3.47;100.00
1736;BME280;865;53.672;10.250;2022-11-21T04:38:14;100086.06;;;-3.53;100.00
1736;BME280;865;53.672;10.250;2022-11-21T04:40:42;100084.31;;;-3.54;100.00
1736;BME280;865;53.672;10.250;2022-11-21T04:43:10;100078.44;;;-3.52;100.00
1736;BME280;865;53.672;10.250;2022-11-21T04:45:36;100081.84;;;-3.51;100.00
1736;BME280;865;53.672;10.250;2022-11-21T04:48:02;100085.22;;;-3.52;100.00
1736;BME280;865;53.672;10.250;2022-11-21T04:50:29;100081.84;;;-3.51;100.00
1736;BME280;865;53.672;10.250;2022-11-21T04:52:56;100089.41;;;-3.54;100.00
1736;BME280;865;53.672;10.250;2022-11-21T04:55:26;100085.16;;;-3.55;100.00
1736;BME280;865;53.672;10.250;2022-11-21T04:57:53;100086.91;;;-3.53;100.00
1736;BME280;865;53.672;10.250;2022-11-21T05:00:20;100090.41;;;-3.49;100.00
1736;BME280;865;53.672;10.250;2022-11-21T05:02:50;100087.06;;;-3.47;100.00
1736;BME280;865;53.672;10.250;2022-11-21T05:05:16;100082.00;;;-3.45;100.00
1736;BME280;865;53.672;10.250;2022-11-21T05:07:43;100089.69;;;-3.44;100.00
1736;BME280;865;53.672;10.250;2022-11-21T05:10:09;100084.81;;;-3.36;100.00
1736;BME280;865;53.672;10.250;2022-11-21T05:12:35;100093.88;;;-3.47;100.00
1736;BME280;865;53.672;10.250;2022-11-21T05:15:21;100092.13;;;-3.48;100.00
1736;BME280;865;53.672;10.250;2022-11-21T05:17:50;100090.28;;;-3.54;100.00
1736;BME280;865;53.672;10.250;2022-11-21T05:20:16;100091.97;;;-3.54;100.00
1736;BME280;865;53.672;10.250;2022-11-21T05:22:43;100092.84;;;-3.54;100.00
1736;BME280;865;53.672;10.250;2022-11-21T05:25:14;100088.56;;;-3.55;100.00
1736;BME280;865;53.672;10.250;2022-11-21T05:27:41;100090.25;;;-3.55;100.00
1736;BME280;865;53.672;10.250;2022-11-21T05:30:08;100087.69;;;-3.55;100.00
1736;BME280;865;53.672;10.250;2022-11-21T05:32:34;100094.31;;;-3.62;100.00
1736;BME280;865;53.672;10.250;2022-11-21T05:35:00;100089.16;;;-3.65;100.00
1736;BME280;865;53.672;10.250;2022-11-21T05:37:27;100090.78;;;-3.67;100.00
1736;BME280;865;53.672;10.250;2022-11-21T05:39:53;100089.06;;;-3.68;100.00
1736;BME280;865;53.672;10.250;2022-11-21T05:42:19;100090.84;;;-3.65;100.00
1736;BME280;865;53.672;10.250;2022-11-21T05:45:06;100086.63;;;-3.63;100.00
1736;BME280;865;53.672;10.250;2022-11-21T05:47:33;100083.44;;;-3.56;100.00
1736;BME280;865;53.672;10.250;2022-11-21T05:49:59;100078.16;;;-3.62;100.00
1736;BME280;865;53.672;10.250;2022-11-21T05:52:27;100072.09;;;-3.66;100.00
1736;BME280;865;53.672;10.250;2022-11-21T05:54:53;100068.69;;;-3.68;100.00
1736;BME280;865;53.672;10.250;2022-11-21T05:57:19;100067.75;;;-3.72;100.00
1736;BME280;865;53.672;10.250;2022-11-21T05:59:46;100069.38;;;-3.74;100.00
1736;BME280;865;53.672;10.250;2022-11-21T06:02:12;100070.38;;;-3.67;100.00
1736;BME280;865;53.672;10.250;2022-11-21T06:04:57;100071.25;;;-3.67;100.00
1736;BME280;865;53.672;10.250;2022-11-21T06:07:23;100081.56;;;-3.62;100.00
1736;BME280;865;53.672;10.250;2022-11-21T06:09:49;100082.34;;;-3.64;100.00
1736;BME280;865;53.672;10.250;2022-11-21T06:12:16;100082.31;;;-3.66;100.00
1736;BME280;865;53.672;10.250;2022-11-21T06:14:47;100077.25;;;-3.64;100.00
1736;BME280;865;53.672;10.250;2022-11-21T06:17:14;100080.66;;;-3.64;100.00
1736;BME280;865;53.672;10.250;2022-11-21T06:19:40;100073.06;;;-3.62;100.00
1736;BME280;865;53.672;10.250;2022-11-21T06:22:06;100078.13;;;-3.64;100.00
1736;BME280;865;53.672;10.250;2022-11-21T06:24:33;100081.34;;;-3.71;100.00
1736;BME280;865;53.672;10.250;2022-11-21T06:26:59;100075.38;;;-3.72;100.00
1736;BME280;865;53.672;10.250;2022-11-21T06:29:25;100077.00;;;-3.74;100.00
1736;BME280;865;53.672;10.250;2022-11-21T06:31:52;100081.19;;;-3.76;100.00
1736;BME280;865;53.672;10.250;2022-11-21T06:34:20;100078.72;;;-3.74;100.00
1736;BME280;865;53.672;10.250;2022-11-21T06:36:47;100077.84;;;-3.75;100.00
1736;BME280;865;53.672;10.250;2022-11-21T06:39:14;100077.09;;;-3.71;100.00
1736;BME280;865;53.672;10.250;2022-11-21T06:41:40;100077.84;;;-3.75;100.00
1736;BME280;865;53.672;10.250;2022-11-21T06:44:07;100074.53;;;-3.71;100.00
1736;BME280;865;53.672;10.250;2022-11-21T06:46:33;100075.25;;;-3.76;100.00
1736;BME280;865;53.672;10.250;2022-11-21T06:49:00;100074.50;;;-3.72;100.00
1736;BME280;865;53.672;10.250;2022-11-21T06:51:26;100077.72;;;-3.78;100.00
1736;BME280;865;53.672;10.250;2022-11-21T06:53:54;100081.34;;;-3.71;100.00
1736;BME280;865;53.672;10.250;2022-11-21T06:56:25;100088.13;;;-3.72;100.00
1736;BME280;865;53.672;10.250;2022-11-21T06:58:52;100089.09;;;-3.67;100.00
1736;BME280;865;53.672;10.250;2022-11-21T07:01:18;100083.28;;;-3.62;100.00
1736;BME280;865;53.672;10.250;2022-11-21T07:03:45;100098.41;;;-3.69;100.00
1736;BME280;865;53.672;10.250;2022-11-21T07:06:11;100102.66;;;-3.68;100.00
1736;BME280;865;53.672;10.250;2022-11-21T07:08:37;100097.56;;;-3.68;100.00
1736;BME280;865;53.672;10.250;2022-11-21T07:11:08;100091.78;;;-3.62;100.00
1736;BME280;865;53.672;10.250;2022-11-21T07:13:50;100094.59;;;-3.51;100.00
1736;BME280;865;53.672;10.250;2022-11-21T07:16:17;100095.56;;;-3.48;100.00
1736;BME280;865;53.672;10.250;2022-11-21T07:18:43;100098.09;;;-3.48;100.00
1736;BME280;865;53.672;10.250;2022-11-21T07:21:10;100104.09;;;-3.46;100.00
1736;BME280;865;53.672;10.250;2022-11-21T07:23:37;100097.88;;;-3.57;100.00
1736;BME280;865;53.672;10.250;2022-11-21T07:26:05;100101.38;;;-3.52;100.00
1736;BME280;865;53.672;10.250;2022-11-21T07:28:32;100105.06;;;-3.42;100.00
1736;BME280;865;53.672;10.250;2022-11-21T07:31:00;100101.53;;;-3.46;100.00
1736;BME280;865;53.672;10.250;2022-11-21T07:33:26;100106.72;;;-3.42;100.00
1736;BME280;865;53.672;10.250;2022-11-21T07:35:57;100108.41;;;-3.43;100.00
1736;BME280;865;53.672;10.250;2022-11-21T07:38:24;100102.53;;;-3.40;100.00
1736;BME280;865;53.672;10.250;2022-11-21T07:40:51;100097.66;;;-3.31;100.00
1736;BME280;865;53.672;10.250;2022-11-21T07:43:18;100101.91;;;-3.32;100.00
1736;BME280;865;53.672;10.250;2022-11-21T07:45:44;100102.91;;;-3.27;100.00
1736;BME280;865;53.672;10.250;2022-11-21T07:48:11;100100.50;;;-3.21;100.00
1736;BME280;865;53.672;10.250;2022-11-21T07:50:38;100095.31;;;-3.24;100.00
1736;BME280;865;53.672;10.250;2022-11-21T07:53:06;100093.72;;;-3.18;100.00
1736;BME280;865;53.672;10.250;2022-11-21T07:55:33;100091.16;;;-3.20;100.00
1736;BME280;865;53.672;10.250;2022-11-21T07:58:08;100097.13;;;-3.19;100.00
1736;BME280;865;53.672;10.250;2022-11-21T08:00:38;100092.16;;;-3.13;100.00
1736;BME280;865;53.672;10.250;2022-11-21T08:03:04;100086.34;;;-3.09;100.00
1736;BME280;865;53.672;10.250;2022-11-21T08:05:36;100089.84;;;-3.04;100.00
1736;BME280;865;53.672;10.250;2022-11-21T08:08:04;100082.00;;;-3.12;100.00
1736;BME280;865;53.672;10.250;2022-11-21T08:10:30;100081.19;;;-3.11;100.00
1736;BME280;865;53.672;10.250;2022-11-21T08:12:57;100077.72;;;-3.13;100.00
1736;BME280;865;53.672;10.250;2022-11-21T08:15:23;100076.72;;;-3.19;100.00
1736;BME280;865;53.672;10.250;2022-11-21T08:17:49;100072.66;;;-3.11;100.00
1736;BME280;865;53.672;10.250;2022-11-21T08:20:16;100074.38;;;-3.10;100.00
1736;BME280;865;53.672;10.250;2022-11-21T08:22:42;100066.81;;;-3.07;100.00
1736;BME280;865;53.672;10.250;2022-11-21T08:25:09;100072.09;;;-3.00;100.00
1736;BME280;865;53.672;10.250;2022-11-21T08:27:37;100064.41;;;-3.01;100.00
1736;BME280;865;53.672;10.250;2022-11-21T08:30:08;100055.06;;;-3.01;100.00
1736;BME280;865;53.672;10.250;2022-11-21T08:32:35;100068.84;;;-2.92;100.00
1736;BME280;865;53.672;10.250;2022-11-21T08:35:02;100066.44;;;-2.88;100.00
1736;BME280;865;53.672;10.250;2022-11-21T08:37:28;100071.81;;;-2.76;100.00
1736;BME280;865;53.672;10.250;2022-11-21T08:39:55;100078.69;;;-2.71;100.00
1736;BME280;865;53.672;10.250;2022-11-21T08:42:24;100083.94;;;-2.67;100.00
1736;BME280;865;53.672;10.250;2022-11-21T08:44:51;100086.63;;;-2.59;100.00
1736;BME280;865;53.672;10.250;2022-11-21T08:47:17;100079.63;;;-2.68;100.00
1736;BME280;865;53.672;10.250;2022-11-21T08:49:44;100070.31;;;-2.66;100.00
1736;BME280;865;53.672;10.250;2022-11-21T08:52:10;100066.09;;;-2.65;100.00
1736;BME280;865;53.672;10.250;2022-11-21T08:54:36;100062.06;;;-2.56;100.00
1736;BME280;865;53.672;10.250;2022-11-21T08:57:03;100064.63;;;-2.56;100.00
1736;BME280;865;53.672;10.250;2022-11-21T08:59:29;100065.47;;;-2.55;100.00
1736;BME280;865;53.672;10.250;2022-11-21T09:01:55;100066.41;;;-2.52;100.00
1736;BME280;865;53.672;10.250;2022-11-21T09:04:22;100066.59;;;-2.42;100.00
1736;BME280;865;53.672;10.250;2022-11-21T09:06:48;100065.63;;;-2.47;100.00
1736;BME280;865;53.672;10.250;2022-11-21T09:09:15;100064.03;;;-2.44;100.00
1736;BME280;865;53.672;10.250;2022-11-21T09:11:49;100066.66;;;-2.41;100.00
1736;BME280;865;53.672;10.250;2022-11-21T09:14:15;100059.78;;;-2.43;100.00
1736;BME280;865;53.672;10.250;2022-11-21T09:17:00;100056.38;;;-2.42;100.00
1736;BME280;865;53.672;10.250;2022-11-21T09:19:44;100070.56;;;-2.55;100.00
1736;BME280;865;53.672;10.250;2022-11-21T09:22:12;100068.97;;;-2.50;100.00
1736;BME280;865;53.672;10.250;2022-11-21T09:24:38;100074.66;;;-2.63;100.00
1736;BME280;865;53.672;10.250;2022-11-21T09:27:04;100085.13;;;-2.51;100.00
1736;BME280;865;53.672;10.250;2022-11-21T09:29:31;100079.25;;;-2.47;100.00
1736;BME280;865;53.672;10.250;2022-11-21T09:31:57;100091.28;;;-2.43;100.00
1736;BME280;865;53.672;10.250;2022-11-21T09:34:23;100089.56;;;-2.42;100.00
1736;BME280;865;53.672;10.250;2022-11-21T09:36:51;100086.75;;;-2.55;100.00
1736;BME280;865;53.672;10.250;2022-11-21T09:39:17;100080.16;;;-2.45;100.00
1736;BME280;865;53.672;10.250;2022-11-21T09:42:06;100090.63;;;-2.33;100.00
1736;BME280;865;53.672;10.250;2022-11-21T09:45:01;100087.34;;;-2.28;100.00
1736;BME280;865;53.672;10.250;2022-11-21T09:47:31;100090.88;;;-2.22;100.00
1736;BME280;865;53.672;10.250;2022-11-21T09:50:06;100088.25;;;-2.25;100.00
1736;BME280;865;53.672;10.250;2022-11-21T09:52:57;100083.16;;;-2.23;100.00
1736;BME280;865;53.672;10.250;2022-11-21T09:58:01;100085.84;;;-2.17;100.00
1736;BME280;865;53.672;10.250;2022-11-21T10:00:29;100083.34;;;-2.14;100.00
1736;BME280;865;53.672;10.250;2022-11-21T10:02:56;100078.00;;;-2.26;100.00
1736;BME280;865;53.672;10.250;2022-11-21T10:05:38;100074.38;;;-2.38;100.00
1736;BME280;865;53.672;10.250;2022-11-21T10:08:17;100070.13;;;-2.36;100.00
1736;BME280;865;53.672;10.250;2022-11-21T10:11:12;100071.88;;;-2.35;100.00
1736;BME280;865;53.672;10.250;2022-11-21T10:13:56;100075.31;;;-2.33;100.00
1736;BME280;865;53.672;10.250;2022-11-21T10:17:19;100069.38;;;-2.32;100.00
1736;BME280;865;53.672;10.250;2022-11-21T10:19:43;100065.41;;;-2.17;100.00
1736;BME280;865;53.672;10.250;2022-11-21T10:22:25;100068.13;;;-2.11;100.00
1736;BME280;865;53.672;10.250;2022-11-21T10:24:58;100072.41;;;-2.09;100.00
1736;BME280;865;53.672;10.250;2022-11-21T10:27:34;100069.91;;;-2.06;100.00
1736;BME280;865;53.672;10.250;2022-11-21T10:30:13;100077.50;;;-2.09;100.00
1736;BME280;865;53.672;10.250;2022-11-21T10:32:43;100075.84;;;-2.07;100.00
1736;BME280;865;53.672;10.250;2022-11-21T10:37:58;100066.78;;;-1.91;100.00
1736;BME280;865;53.672;10.250;2022-11-21T10:40:37;100071.97;;;-1.88;100.00
1736;BME280;865;53.672;10.250;2022-11-21T10:43:40;100067.94;;;-1.76;100.00
1736;BME280;865;53.672;10.250;2022-11-21T10:46:26;100060.44;;;-1.67;100.00
1736;BME280;865;53.672;10.250;2022-11-21T10:49:01;100070.81;;;-1.59;100.00
1736;BME280;865;53.672;10.250;2022-11-21T10:54:29;100068.63;;;-1.38;100.00
1736;BME280;865;53.672;10.250;2022-11-21T10:57:19;100060.91;;;-1.43;100.00
1736;BME280;865;53.672;10.250;2022-11-21T11:02:39;100057.69;;;-1.29;100.00
1736;BME280;865;53.672;10.250;2022-11-21T11:05:18;100047.72;;;-1.14;100.00
1736;BME280;865;53.672;10.250;2022-11-21T11:08:10;100055.53;;;-1.06;100.00
1736;BME280;865;53.672;10.250;2022-11-21T11:10:38;100055.59;;;-1.02;100.00
1736;BME280;865;53.672;10.250;2022-11-21T11:13:17;100042.75;;;-1.05;100.00
1736;BME280;865;53.672;10.250;2022-11-21T11:16:17;100035.38;;;-0.85;100.00
1736;BME280;865;53.672;10.250;2022-11-21T11:19:03;100033.03;;;-0.71;100.00
1736;BME280;865;53.672;10.250;2022-11-21T11:31:45;100035.75;;;-0.59;100.00
1736;BME280;865;53.672;10.250;2022-11-21T11:34:16;100028.94;;;-0.58;100.00
1736;BME280;865;53.672;10.250;2022-11-21T11:39:35;100023.69;;;-0.67;100.00
1736;BME280;865;53.672;10.250;2022-11-21T11:42:18;100023.66;;;-0.69;100.00
1736;BME280;865;53.672;10.250;2022-11-21T11:47:59;100013.38;;;-0.72;100.00
1736;BME280;865;53.672;10.250;2022-11-21T11:53:23;100008.53;;;-0.52;100.00
1736;BME280;865;53.672;10.250;2022-11-21T11:58:54;100007.59;;;-0.59;100.00
1736;BME280;865;53.672;10.250;2022-11-21T12:01:29;100007.63;;;-0.54;100.00
1736;BME280;865;53.672;10.250;2022-11-21T12:06:37;99998.34;;;-0.48;100.00
1736;BME280;865;53.672;10.250;2022-11-21T12:12:27;99991.69;;;-0.35;100.00
1736;BME280;865;53.672;10.250;2022-11-21T12:21:07;99987.56;;;-0.19;100.00
1736;BME280;865;53.672;10.250;2022-11-21T12:29:31;99964.78;;;0.06;100.00
1736;BME280;865;53.672;10.250;2022-11-21T12:40:11;99955.66;;;0.38;100.00
1736;BME280;865;53.672;10.250;2022-11-21T12:43:07;99947.19;;;0.42;100.00
1736;BME280;865;53.672;10.250;2022-11-21T12:51:38;99931.78;;;0.44;100.00
1736;BME280;865;53.672;10.250;2022-11-21T12:55:04;99925.06;;;0.57;100.00
1736;BME280;865;53.672;10.250;2022-11-21T12:57:45;99912.25;;;0.60;100.00
1736;BME280;865;53.672;10.250;2022-11-21T13:00:35;99913.91;;;0.56;100.00
1736;BME280;865;53.672;10.250;2022-11-21T13:03:32;99911.41;;;0.64;100.00
1736;BME280;865;53.672;10.250;2022-11-21T13:06:05;99916.63;;;0.76;100.00
1736;BME280;865;53.672;10.250;2022-11-21T13:08:39;99908.91;;;0.73;100.00
1736;BME280;865;53.672;10.250;2022-11-21T13:14:50;99902.09;;;0.80;100.00
1736;BME280;865;53.672;10.250;2022-11-21T13:25:38;99891.72;;;0.60;100.00
1736;BME280;865;53.672;10.250;2022-11-21T14:02:05;99873.47;;;0.23;100.00
1736;BME280;865;53.672;10.250;2022-11-21T14:04:48;99874.31;;;0.23;100.00
1736;BME280;865;53.672;10.250;2022-11-21T14:07:30;99882.88;;;0.21;100.00
1736;BME280;865;53.672;10.250;2022-11-21T14:10:03;99882.88;;;0.22;100.00
1736;BME280;865;53.672;10.250;2022-11-21T14:12:34;99875.19;;;0.21;100.00
1736;BME280;865;53.672;10.250;2022-11-21T14:15:16;99876.91;;;0.22;100.00
1736;BME280;865;53.672;10.250;2022-11-21T14:17:47;99881.16;;;0.23;100.00
1736;BME280;865;53.672;10.250;2022-11-21T14:20:24;99874.31;;;0.20;100.00
1736;BME280;865;53.672;10.250;2022-11-21T14:23:02;99885.41;;;0.18;100.00
1736;BME280;865;53.672;10.250;2022-11-21T14:25:36;99883.72;;;0.20;100.00
1736;BME280;865;53.672;10.250;2022-11-21T14:30:55;99891.41;;;0.18;100.00
1736;BME280;865;53.672;10.250;2022-11-21T14:33:27;99876.81;;;0.10;100.00
1736;BME280;865;53.672;10.250;2022-11-21T14:38:49;99880.09;;;-0.01;100.00
1736;BME280;865;53.672;10.250;2022-11-21T14:41:37;99885.13;;;-0.13;100.00
1736;BME280;865;53.672;10.250;2022-11-21T14:44:13;99880.00;;;-0.13;100.00
1736;BME280;865;53.672;10.250;2022-11-21T14:46:41;99879.97;;;-0.17;100.00
1736;BME280;865;53.672;10.250;2022-11-21T14:51:37;99876.44;;;-0.27;100.00
1736;BME280;865;53.672;10.250;2022-11-21T14:54:12;99870.47;;;-0.28;100.00
1736;BME280;865;53.672;10.250;2022-11-21T14:56:40;99872.19;;;-0.25;100.00
1736;BME280;865;53.672;10.250;2022-11-21T14:59:21;99866.19;;;-0.27;100.00
1736;BME280;865;53.672;10.250;2022-11-21T15:01:58;99867.81;;;-0.37;100.00
1736;BME280;865;53.672;10.250;2022-11-21T15:04:30;99869.44;;;-0.42;100.00
1736;BME280;865;53.672;10.250;2022-11-21T15:06:58;99868.53;;;-0.50;100.00
1736;BME280;865;53.672;10.250;2022-11-21T15:09:25;99871.94;;;-0.50;100.00
1736;BME280;865;53.672;10.250;2022-11-21T15:12:14;99871.03;;;-0.55;100.00
1736;BME280;865;53.672;10.250;2022-11-21T15:14:48;99860.78;;;-0.55;100.00
1736;BME280;865;53.672;10.250;2022-11-21T15:17:17;99866.72;;;-0.57;100.00
1736;BME280;865;53.672;10.250;2022-11-21T15:19:45;99864.03;;;-0.71;100.00
1736;BME280;865;53.672;10.250;2022-11-21T15:22:28;99859.72;;;-0.74;100.00
1736;BME280;865;53.672;10.250;2022-11-21T15:27:40;99859.72;;;-0.74;100.00
1736;BME280;865;53.672;10.250;2022-11-21T15:33:00;99860.38;;;-0.92;100.00